Time;durP1;ratioP1;P1;durP2;ratioP2;P2;SDS_P1;SDS_P2;PMS_P1;PMS_P2;Temp;Humidity;BMP_temperature;BMP_pressure;BME280_temperature;BME280_humidity;BME280_pressure;Samples;Min_cycle;Max_cycle;Signal;HPM_P1;HPM_P2
2023/01/25 00:01:06;;;;;;;29.95;16.98;;;2.30;99.90;;;;;;5011724;28;20452;-72
2023/01/25 00:03:34;;;;;;;30.48;16.20;;;2.30;99.90;;;;;;4995288;28;20472;-73
2023/01/25 00:06:02;;;;;;;32.78;16.88;;;2.30;99.90;;;;;;4969850;28;20096;-73
2023/01/25 00:08:29;;;;;;;32.75;17.60;;;2.30;99.90;;;;;;4992109;28;20449;-72
2023/01/25 00:10:57;;;;;;;31.58;16.17;;;2.20;99.90;;;;;;5000716;28;20037;-74
2023/01/25 00:13:25;;;;;;;35.13;17.02;;;2.20;99.90;;;;;;5011404;28;20409;-72
2023/01/25 00:15:53;;;;;;;33.60;17.13;;;2.30;99.90;;;;;;5010186;28;20061;-72
2023/01/25 00:18:21;;;;;;;33.83;17.50;;;2.30;99.90;;;;;;4994199;28;20504;-73
2023/01/25 00:20:48;;;;;;;33.55;16.50;;;2.30;99.90;;;;;;5008217;28;20065;-72
2023/01/25 00:23:18;;;;;;;35.00;16.50;;;2.20;99.90;;;;;;5015735;28;20496;-72
2023/01/25 00:25:48;;;;;;;32.05;16.77;;;2.30;99.90;;;;;;5001546;28;20097;-73
2023/01/25 00:28:15;;;;;;;30.13;16.10;;;2.20;99.90;;;;;;5023825;28;20052;-71
2023/01/25 00:30:42;;;;;;;31.63;15.98;;;2.20;99.90;;;;;;5010248;28;20477;-71
2023/01/25 00:33:15;;;;;;;33.75;17.13;;;2.20;99.90;;;;;;5011426;28;20046;-71
2023/01/25 00:35:48;;;;;;;30.02;15.35;;;2.20;99.90;;;;;;5011256;28;20046;-72
2023/01/25 00:38:34;;;;;;;31.73;16.83;;;2.20;99.90;;;;;;5010749;28;20048;-71
2023/01/25 00:41:01;;;;;;;26.88;14.80;;;2.20;99.90;;;;;;5011202;28;20040;-71
2023/01/25 00:43:28;;;;;;;28.45;16.10;;;2.20;99.90;;;;;;5010501;28;20509;-71
2023/01/25 00:46:02;;;;;;;33.55;16.85;;;2.20;99.90;;;;;;5011639;28;20556;-71
2023/01/25 00:48:29;;;;;;;30.95;16.50;;;2.20;99.90;;;;;;4994580;28;20042;-71
2023/01/25 00:51:00;;;;;;;31.15;16.20;;;2.20;99.90;;;;;;5010478;28;20121;-71
2023/01/25 00:53:28;;;;;;;31.75;15.57;;;2.20;99.90;;;;;;4994475;28;20583;-71
2023/01/25 00:55:55;;;;;;;31.13;15.77;;;2.10;99.90;;;;;;5010210;28;20042;-70
2023/01/25 00:58:23;;;;;;;30.70;15.43;;;2.20;99.90;;;;;;5010617;28;20500;-71
2023/01/25 01:00:55;;;;;;;28.88;14.82;;;2.10;99.90;;;;;;5011399;28;20140;-72
2023/01/25 01:03:23;;;;;;;31.98;16.30;;;2.20;99.90;;;;;;4994106;28;20124;-71
2023/01/25 01:06:03;;;;;;;29.38;15.63;;;2.10;99.90;;;;;;4982030;28;20046;-70
2023/01/25 01:08:33;;;;;;;31.63;16.27;;;2.10;99.90;;;;;;5010461;28;20457;-70
2023/01/25 01:11:02;;;;;;;30.58;16.13;;;2.10;99.90;;;;;;4977988;28;20479;-70
2023/01/25 01:13:29;;;;;;;30.52;15.70;;;2.10;99.90;;;;;;5007574;28;20515;-71
2023/01/25 01:16:01;;;;;;;31.33;15.50;;;2.00;99.90;;;;;;5011297;28;20042;-71
2023/01/25 01:18:33;;;;;;;36.15;17.20;;;2.00;99.90;;;;;;5010119;28;20046;-71
2023/01/25 01:21:01;;;;;;;32.33;16.60;;;2.00;99.90;;;;;;5010333;28;20399;-71
2023/01/25 01:23:29;;;;;;;35.28;16.60;;;2.00;99.90;;;;;;5007501;28;20423;-71
2023/01/25 01:26:01;;;;;;;31.02;17.33;;;2.00;99.90;;;;;;5011372;28;20125;-71
2023/01/25 01:28:29;;;;;;;32.00;18.42;;;2.00;99.90;;;;;;4993544;28;20152;-71
2023/01/25 01:31:01;;;;;;;31.58;15.85;;;2.00;99.90;;;;;;5010179;28;20455;-72
2023/01/25 01:33:32;;;;;;;31.98;16.80;;;1.90;99.90;;;;;;4994428;28;20038;-71
2023/01/25 01:36:10;;;;;;;32.90;16.38;;;2.00;99.90;;;;;;5009854;28;20504;-70
2023/01/25 01:38:37;;;;;;;34.05;16.60;;;2.00;99.90;;;;;;5009655;28;20025;-71
2023/01/25 01:41:05;;;;;;;29.92;16.63;;;2.00;99.90;;;;;;5011054;28;20050;-71
2023/01/25 01:43:33;;;;;;;31.30;16.88;;;2.00;99.90;;;;;;4977704;28;20452;-71
2023/01/25 01:46:20;;;;;;;30.02;15.93;;;2.00;99.90;;;;;;5013639;28;20038;-71
2023/01/25 01:49:09;;;;;;;30.30;16.08;;;2.00;99.90;;;;;;5013991;28;20030;-72
2023/01/25 01:51:39;;;;;;;30.52;17.42;;;2.00;99.90;;;;;;5017403;28;20421;-71
2023/01/25 01:54:37;;;;;;;27.70;14.88;;;2.00;99.90;;;;;;5012602;28;20076;-71
2023/01/25 01:57:20;;;;;;;31.63;16.73;;;1.90;99.90;;;;;;4999532;28;20089;-72
2023/01/25 01:59:54;;;;;;;30.05;16.42;;;1.90;99.90;;;;;;5030803;28;20042;-70
2023/01/25 02:02:25;;;;;;;31.15;17.35;;;2.00;99.90;;;;;;4995956;28;20089;-71
2023/01/25 02:04:57;;;;;;;29.38;15.73;;;2.00;99.90;;;;;;5013552;28;20049;-71
2023/01/25 02:07:32;;;;;;;32.72;15.93;;;1.90;99.90;;;;;;5015212;28;20069;-71
2023/01/25 02:10:04;;;;;;;34.35;17.40;;;1.90;99.90;;;;;;5012821;28;20037;-71
2023/01/25 02:12:32;;;;;;;31.30;16.02;;;1.90;99.90;;;;;;5014664;28;20045;-71
2023/01/25 02:14:59;;;;;;;32.63;17.63;;;1.90;99.90;;;;;;4986276;28;20041;-71
2023/01/25 02:17:29;;;;;;;28.45;16.35;;;1.90;99.90;;;;;;5033073;28;20067;-71
2023/01/25 02:20:02;;;;;;;29.90;16.13;;;2.00;99.90;;;;;;5032010;28;20052;-71
2023/01/25 02:22:39;;;;;;;33.05;16.83;;;1.90;99.90;;;;;;5013171;28;20042;-70
2023/01/25 02:25:13;;;;;;;30.08;16.20;;;1.90;99.90;;;;;;5015390;28;20531;-71
2023/01/25 02:27:46;;;;;;;32.92;16.27;;;1.90;99.90;;;;;;5006910;28;20033;-70
2023/01/25 02:30:14;;;;;;;30.00;15.85;;;1.90;99.90;;;;;;5033090;28;20042;-70
2023/01/25 02:32:43;;;;;;;30.98;16.70;;;2.00;99.90;;;;;;5019143;28;20048;-71
2023/01/25 02:35:35;;;;;;;32.17;16.65;;;2.00;99.90;;;;;;5029186;28;20038;-71
2023/01/25 02:38:04;;;;;;;29.48;16.85;;;2.00;99.90;;;;;;5012036;28;20515;-70
2023/01/25 02:40:38;;;;;;;35.25;17.25;;;1.90;99.90;;;;;;5032164;28;20048;-71
2023/01/25 02:43:06;;;;;;;34.97;16.83;;;1.90;99.90;;;;;;5014052;28;20445;-72
2023/01/25 02:45:34;;;;;;;32.83;17.27;;;2.00;99.90;;;;;;4994615;28;20408;-71
2023/01/25 02:48:01;;;;;;;28.48;15.00;;;2.00;99.90;;;;;;4995096;28;20053;-71
2023/01/25 02:50:29;;;;;;;32.30;16.15;;;2.00;99.90;;;;;;5011904;28;20068;-71
2023/01/25 02:52:56;;;;;;;33.25;16.10;;;2.00;99.90;;;;;;4999562;28;20122;-71
2023/01/25 02:55:24;;;;;;;31.58;15.90;;;1.90;99.90;;;;;;5012514;28;20077;-70
2023/01/25 02:57:51;;;;;;;30.55;17.17;;;1.90;99.90;;;;;;4995838;28;20173;-70
2023/01/25 03:00:20;;;;;;;33.83;17.35;;;1.90;99.90;;;;;;5012657;28;20048;-70
2023/01/25 03:02:47;;;;;;;28.52;15.73;;;1.90;99.90;;;;;;5012503;28;20065;-70
2023/01/25 03:05:14;;;;;;;27.00;14.55;;;1.90;99.90;;;;;;4992175;28;20114;-70
2023/01/25 03:07:42;;;;;;;30.98;14.82;;;1.90;99.90;;;;;;5007375;28;20094;-69
2023/01/25 03:10:10;;;;;;;26.98;13.77;;;1.90;99.90;;;;;;5010856;28;20128;-70
2023/01/25 03:12:37;;;;;;;26.65;14.93;;;1.90;99.90;;;;;;5011446;28;20104;-71
2023/01/25 03:15:05;;;;;;;31.25;14.13;;;1.90;99.90;;;;;;5000264;28;20052;-71
2023/01/25 03:17:36;;;;;;;28.73;14.50;;;1.90;99.90;;;;;;5031984;28;20057;-70
2023/01/25 03:20:05;;;;;;;26.65;13.48;;;1.90;99.90;;;;;;5031791;28;20121;-72
2023/01/25 03:22:35;;;;;;;26.50;14.25;;;1.90;99.90;;;;;;5015853;28;20541;-71
2023/01/25 03:25:03;;;;;;;25.92;13.25;;;1.80;99.90;;;;;;5032093;28;20037;-71
2023/01/25 03:27:30;;;;;;;24.15;13.20;;;1.80;99.90;;;;;;5025586;28;20042;-71
2023/01/25 03:30:16;;;;;;;26.52;13.80;;;1.80;99.90;;;;;;4993166;28;20046;-71
2023/01/25 03:32:43;;;;;;;24.27;13.45;;;1.80;99.90;;;;;;5009128;28;20037;-71
2023/01/25 03:35:14;;;;;;;30.27;13.77;;;1.80;99.90;;;;;;5010923;28;20058;-71
2023/01/25 03:37:42;;;;;;;28.90;14.55;;;1.80;99.90;;;;;;5010832;28;20507;-71
2023/01/25 03:40:10;;;;;;;26.27;13.13;;;1.80;99.90;;;;;;5012062;28;20074;-71
2023/01/25 03:42:41;;;;;;;28.55;15.45;;;1.90;99.90;;;;;;4995718;28;20042;-71
2023/01/25 03:45:13;;;;;;;28.45;14.30;;;1.90;99.90;;;;;;5011802;28;20096;-72
2023/01/25 03:47:40;;;;;;;27.23;13.80;;;1.90;99.90;;;;;;4998118;28;20536;-72
2023/01/25 03:50:09;;;;;;;28.42;14.20;;;1.90;99.90;;;;;;5006979;28;20437;-72
2023/01/25 03:52:40;;;;;;;24.48;13.13;;;1.80;99.90;;;;;;5022597;28;20519;-72
2023/01/25 03:55:08;;;;;;;24.75;13.07;;;1.90;99.90;;;;;;4979648;28;20082;-70
2023/01/25 03:57:40;;;;;;;;;;;1.90;99.90;;;;;;5024297;28;20488;-71
2023/01/25 04:00:11;;;;;;;28.15;14.35;;;1.80;99.90;;;;;;5025820;28;20368;-70
2023/01/25 04:02:44;;;;;;;26.30;13.73;;;1.80;99.90;;;;;;5029111;28;20057;-70
2023/01/25 04:05:15;;;;;;;27.75;14.07;;;1.80;99.90;;;;;;5030080;28;20053;-71
2023/01/25 04:07:42;;;;;;;30.02;15.63;;;1.70;99.90;;;;;;5029317;28;20081;-71
2023/01/25 04:10:10;;;;;;;23.08;13.40;;;1.80;99.90;;;;;;5025615;28;20501;-70
2023/01/25 04:12:41;;;;;;;26.27;13.48;;;1.80;99.90;;;;;;5011374;28;20065;-70
2023/01/25 04:15:09;;;;;;;30.25;15.50;;;1.80;99.90;;;;;;5010175;28;20380;-70
2023/01/25 04:17:38;;;;;;;29.15;14.70;;;1.80;99.90;;;;;;5012072;28;20100;-71
2023/01/25 04:20:14;;;;;;;28.95;15.43;;;1.80;99.90;;;;;;5030929;28;20484;-70
2023/01/25 04:22:43;;;;;;;27.80;15.25;;;1.80;99.90;;;;;;5029187;28;20045;-71
2023/01/25 04:25:10;;;;;;;28.50;15.38;;;1.80;99.90;;;;;;5030148;28;20045;-72
2023/01/25 04:27:44;;;;;;;28.33;15.07;;;1.80;99.90;;;;;;5019533;28;20125;-70
2023/01/25 04:30:14;;;;;;;30.60;15.25;;;1.90;99.90;;;;;;5011495;28;20058;-70
2023/01/25 04:32:43;;;;;;;29.67;15.48;;;1.90;99.90;;;;;;5008703;28;20113;-70
2023/01/25 04:35:20;;;;;;;24.35;14.32;;;1.90;99.90;;;;;;5008046;28;20370;-70
2023/01/25 04:37:58;;;;;;;28.25;14.20;;;1.90;99.90;;;;;;5028914;28;20079;-70
2023/01/25 04:40:33;;;;;;;29.85;13.88;;;1.90;99.90;;;;;;5023538;28;20053;-70
2023/01/25 04:43:00;;;;;;;28.80;13.57;;;1.90;99.90;;;;;;5022422;28;20041;-70
2023/01/25 04:45:29;;;;;;;28.40;14.10;;;1.90;99.90;;;;;;5014829;28;20080;-70
2023/01/25 04:48:03;;;;;;;24.17;13.05;;;1.90;99.90;;;;;;5027022;28;20044;-70
2023/01/25 04:50:31;;;;;;;29.90;14.68;;;2.00;99.90;;;;;;5018652;28;20037;-70
2023/01/25 04:52:59;;;;;;;26.17;13.75;;;1.90;99.90;;;;;;5028516;28;20057;-70
2023/01/25 04:55:28;;;;;;;23.38;12.98;;;1.90;99.90;;;;;;5029203;28;20033;-70
2023/01/25 04:58:00;;;;;;;25.33;13.85;;;1.90;99.90;;;;;;5013692;28;20530;-71
2023/01/25 05:00:28;;;;;;;23.67;12.00;;;1.90;99.90;;;;;;5014154;28;20046;-71
2023/01/25 05:02:58;;;;;;;26.77;13.50;;;1.90;99.90;;;;;;5005805;28;20046;-70
2023/01/25 05:05:25;;;;;;;24.98;13.85;;;1.80;99.90;;;;;;4989477;28;20078;-71
2023/01/25 05:07:54;;;;;;;25.33;13.18;;;1.80;99.90;;;;;;4991321;28;20050;-70
2023/01/25 05:10:22;;;;;;;28.20;13.65;;;1.80;99.90;;;;;;5007551;28;20053;-71
2023/01/25 05:13:07;;;;;;;25.38;13.02;;;1.80;99.90;;;;;;5010902;28;20512;-71
2023/01/25 05:15:35;;;;;;;23.77;13.25;;;1.80;99.90;;;;;;5008792;28;20038;-70
2023/01/25 05:18:03;;;;;;;24.88;12.75;;;1.80;99.90;;;;;;5009293;28;20137;-71
2023/01/25 05:20:32;;;;;;;23.55;12.98;;;1.80;99.90;;;;;;5011597;28;20377;-70
2023/01/25 05:22:59;;;;;;;22.20;12.32;;;1.80;99.90;;;;;;5024593;28;20385;-70
2023/01/25 05:28:20;;;;;;;24.30;12.15;;;1.70;99.90;;;;;;5023155;28;20112;-71
2023/01/25 05:31:09;;;;;;;26.15;13.57;;;1.70;99.90;;;;;;5011692;28;20038;-69
2023/01/25 05:33:37;;;;;;;24.23;13.23;;;1.60;99.90;;;;;;4997191;28;20034;-70
2023/01/25 05:36:05;;;;;;;21.23;12.00;;;1.60;99.90;;;;;;4998276;28;20429;-71
2023/01/25 05:38:35;;;;;;;28.45;14.23;;;1.60;99.90;;;;;;5032845;28;20068;-70
2023/01/25 05:41:02;;;;;;;29.63;14.27;;;1.60;99.90;;;;;;5030803;28;20234;-71
2023/01/25 05:43:30;;;;;;;26.45;12.98;;;1.60;99.90;;;;;;4996297;28;20354;-70
2023/01/25 05:45:57;;;;;;;29.63;13.80;;;1.70;99.90;;;;;;4996853;28;20529;-70
2023/01/25 05:48:24;;;;;;;24.80;11.93;;;1.70;99.90;;;;;;4997528;28;20482;-70
2023/01/25 05:50:55;;;;;;;27.75;14.23;;;1.70;99.90;;;;;;5029178;28;20042;-71
2023/01/25 05:53:27;;;;;;;22.95;12.18;;;1.70;99.90;;;;;;5033087;28;20105;-70
2023/01/25 05:55:54;;;;;;;23.52;12.27;;;1.70;99.90;;;;;;5032300;28;20029;-70
2023/01/25 05:58:21;;;;;;;24.15;12.25;;;1.70;99.90;;;;;;5025920;28;20037;-70
2023/01/25 06:00:49;;;;;;;20.90;11.05;;;1.70;99.90;;;;;;5014606;28;20485;-70
2023/01/25 06:03:27;;;;;;;25.23;12.65;;;1.70;99.90;;;;;;5013687;28;20527;-70
2023/01/25 06:05:56;;;;;;;26.20;12.77;;;1.70;99.90;;;;;;5013294;28;20088;-69
2023/01/25 06:08:24;;;;;;;23.88;12.35;;;1.70;99.90;;;;;;5013565;28;20388;-71
2023/01/25 06:10:53;;;;;;;23.02;13.77;;;1.70;99.90;;;;;;5012708;28;20092;-70
2023/01/25 06:13:23;;;;;;;25.42;14.02;;;1.70;99.90;;;;;;5013393;28;20049;-71
2023/01/25 06:15:54;;;;;;;30.73;13.70;;;1.70;99.90;;;;;;5012962;28;20049;-71
2023/01/25 06:18:40;;;;;;;28.27;13.98;;;1.70;99.90;;;;;;5013656;28;20077;-71
2023/01/25 06:21:14;;;;;;;32.22;15.63;;;1.70;99.90;;;;;;5012841;28;20469;-71
2023/01/25 06:23:41;;;;;;;25.00;14.38;;;1.70;99.90;;;;;;5014609;28;20049;-72
2023/01/25 06:26:13;;;;;;;27.45;13.88;;;1.70;99.90;;;;;;5013044;28;20096;-71
2023/01/25 06:28:40;;;;;;;25.38;13.73;;;1.70;99.90;;;;;;5014123;28;20041;-72
2023/01/25 06:31:13;;;;;;;28.08;14.60;;;1.70;99.90;;;;;;5012910;28;20053;-70
2023/01/25 06:33:42;;;;;;;29.88;14.90;;;1.70;99.90;;;;;;5012729;28;20732;-71
2023/01/25 06:36:13;;;;;;;30.02;15.32;;;1.70;99.90;;;;;;4996664;28;20400;-71
2023/01/25 06:38:41;;;;;;;28.48;14.80;;;1.70;99.90;;;;;;5009476;28;20038;-72
2023/01/25 06:41:10;;;;;;;26.80;14.70;;;1.70;99.90;;;;;;5010029;28;20100;-72
2023/01/25 06:43:38;;;;;;;36.10;16.17;;;1.60;99.90;;;;;;5002137;28;20478;-73
2023/01/25 06:46:08;;;;;;;30.52;15.73;;;1.60;99.90;;;;;;4978384;28;20080;-71
2023/01/25 06:48:35;;;;;;;30.10;15.98;;;1.60;99.90;;;;;;5012600;28;20393;-71
2023/01/25 06:51:06;;;;;;;30.02;15.60;;;1.60;99.90;;;;;;5012393;28;20036;-71
2023/01/25 06:53:37;;;;;;;30.90;15.38;;;1.70;99.90;;;;;;5011822;28;20042;-71
2023/01/25 06:56:07;;;;;;;31.13;14.60;;;1.70;99.90;;;;;;5014134;28;20038;-72
2023/01/25 06:58:38;;;;;;;26.20;13.77;;;1.70;99.90;;;;;;5013853;28;20053;-72
2023/01/25 07:01:14;;;;;;;30.27;15.00;;;1.70;99.90;;;;;;4995227;28;20052;-71
2023/01/25 07:03:42;;;;;;;27.45;14.02;;;1.70;99.90;;;;;;5012447;28;20384;-72
2023/01/25 07:06:10;;;;;;;26.58;13.80;;;1.60;99.90;;;;;;4995722;28;20054;-72
2023/01/25 07:08:38;;;;;;;28.45;14.57;;;1.60;99.90;;;;;;5012322;28;20510;-72
2023/01/25 07:11:10;;;;;;;31.65;14.93;;;1.60;99.90;;;;;;5012005;28;20041;-71
2023/01/25 07:13:39;;;;;;;23.83;13.18;;;1.60;99.90;;;;;;5012938;28;20408;-71
2023/01/25 07:16:10;;;;;;;33.03;15.20;;;1.70;99.90;;;;;;5011937;28;20038;-73
2023/01/25 07:18:37;;;;;;;32.63;15.50;;;1.70;99.90;;;;;;5006214;28;20166;-73
2023/01/25 07:21:07;;;;;;;28.35;14.88;;;1.70;99.90;;;;;;5011279;28;20052;-73
2023/01/25 07:23:36;;;;;;;30.05;15.23;;;1.60;99.90;;;;;;4988965;28;20058;-71
2023/01/25 07:26:05;;;;;;;31.80;15.20;;;1.60;99.90;;;;;;5011892;28;20033;-73
2023/01/25 07:28:32;;;;;;;29.10;15.02;;;1.60;99.90;;;;;;5012677;28;20042;-73
2023/01/25 07:31:06;;;;;;;32.72;16.15;;;1.60;99.90;;;;;;5011346;28;20030;-73
2023/01/25 07:33:34;;;;;;;27.52;15.38;;;1.60;99.90;;;;;;5011501;28;20475;-73
2023/01/25 07:36:03;;;;;;;27.33;13.65;;;1.70;99.90;;;;;;5012725;28;20334;-73
2023/01/25 07:38:31;;;;;;;33.28;15.98;;;1.60;99.90;;;;;;5008913;28;20088;-72
2023/01/25 07:40:58;;;;;;;33.20;15.52;;;1.60;99.90;;;;;;5010298;28;20556;-73
2023/01/25 07:43:26;;;;;;;32.25;15.35;;;1.60;99.90;;;;;;5011104;28;20096;-72
2023/01/25 07:45:58;;;;;;;31.35;15.70;;;1.70;99.90;;;;;;5012319;28;20050;-73
2023/01/25 07:48:26;;;;;;;32.60;16.13;;;1.70;99.90;;;;;;4995461;28;20030;-73
2023/01/25 07:53:43;;;;;;;29.35;15.25;;;1.60;99.90;;;;;;5010758;28;20080;-73
2023/01/25 07:56:11;;;;;;;31.77;16.83;;;1.60;99.90;;;;;;5016364;28;20038;-73
2023/01/25 07:58:39;;;;;;;30.15;15.90;;;1.60;99.90;;;;;;5029199;28;20052;-73
2023/01/25 08:01:07;;;;;;;33.67;15.85;;;1.50;99.90;;;;;;4978237;28;20046;-73
2023/01/25 08:03:36;;;;;;;30.42;16.42;;;1.60;99.90;;;;;;4994636;28;20464;-73
2023/01/25 08:06:06;;;;;;;29.77;14.23;;;1.60;99.90;;;;;;5029822;28;20052;-73
2023/01/25 08:08:39;;;;;;;33.25;15.90;;;1.60;99.90;;;;;;5030868;28;20029;-73
2023/01/25 08:11:16;;;;;;;51.85;25.52;;;1.60;99.90;;;;;;5019072;28;20045;-74
2023/01/25 08:13:46;;;;;;;38.28;20.58;;;1.60;99.90;;;;;;5024053;28;20044;-74
2023/01/25 08:16:15;;;;;;;34.63;16.85;;;1.60;99.90;;;;;;5030848;28;20041;-73
2023/01/25 08:18:42;;;;;;;30.27;15.65;;;1.60;99.90;;;;;;5023961;28;20037;-74
2023/01/25 08:21:10;;;;;;;30.42;15.27;;;1.70;99.90;;;;;;5008527;28;20053;-72
2023/01/25 08:23:38;;;;;;;30.48;15.23;;;1.70;99.90;;;;;;5012881;28;20504;-73
2023/01/25 08:26:08;;;;;;;29.90;14.80;;;1.70;99.90;;;;;;5014006;28;20052;-73
2023/01/25 08:28:35;;;;;;;29.20;14.95;;;1.70;99.90;;;;;;5018812;28;20076;-72
2023/01/25 08:31:13;;;;;;;35.65;17.95;;;1.70;99.90;;;;;;5027536;28;20047;-73
2023/01/25 08:33:41;;;;;;;25.05;13.30;;;1.70;99.90;;;;;;5029358;28;20046;-72
2023/01/25 08:36:09;;;;;;;28.98;13.88;;;1.70;99.90;;;;;;5028215;28;20043;-72
2023/01/25 08:38:38;;;;;;;26.15;13.00;;;1.80;99.90;;;;;;5007650;28;20057;-73
2023/01/25 08:41:06;;;;;;;24.08;12.35;;;1.80;99.90;;;;;;5007339;28;20461;-73
2023/01/25 08:43:34;;;;;;;23.42;13.13;;;1.80;99.90;;;;;;5019672;28;20598;-73
2023/01/25 08:46:02;;;;;;;22.38;12.05;;;1.70;99.90;;;;;;5015688;28;20073;-73
2023/01/25 08:48:29;;;;;;;25.42;13.43;;;1.60;99.90;;;;;;5010302;28;20050;-71
2023/01/25 08:50:57;;;;;;;25.73;13.00;;;1.70;99.90;;;;;;5008612;28;20049;-72
2023/01/25 08:53:27;;;;;;;26.38;14.77;;;1.70;99.90;;;;;;5009833;28;20145;-72
2023/01/25 08:55:54;;;;;;;28.02;14.02;;;1.60;99.90;;;;;;5011955;28;20511;-72
2023/01/25 08:58:22;;;;;;;27.63;14.00;;;1.60;99.90;;;;;;5013978;28;20037;-72
2023/01/25 09:00:49;;;;;;;23.13;12.95;;;1.70;99.90;;;;;;5011899;28;20136;-72
2023/01/25 09:03:16;;;;;;;28.83;13.35;;;1.70;99.90;;;;;;5031876;28;20084;-72
2023/01/25 09:05:44;;;;;;;23.67;13.50;;;1.70;99.90;;;;;;5028129;28;20411;-73
2023/01/25 09:08:11;;;;;;;25.67;13.85;;;1.70;99.90;;;;;;5029103;28;20076;-72
2023/01/25 09:10:38;;;;;;;31.83;17.70;;;1.70;99.90;;;;;;5020495;28;20088;-72
2023/01/25 09:13:06;;;;;;;27.40;15.43;;;1.80;99.90;;;;;;5024069;28;20046;-72
2023/01/25 09:15:35;;;;;;;28.95;14.82;;;1.80;99.90;;;;;;5029211;28;20528;-72
2023/01/25 09:18:02;;;;;;;23.95;12.95;;;1.90;99.90;;;;;;5027903;28;20049;-72
2023/01/25 09:20:29;;;;;;;22.73;12.77;;;1.90;99.90;;;;;;5027657;28;20073;-72
2023/01/25 09:23:00;;;;;;;25.02;13.68;;;1.90;99.90;;;;;;5021399;28;20052;-73
2023/01/25 09:25:27;;;;;;;25.83;13.90;;;1.90;99.90;;;;;;5030488;28;20045;-70
2023/01/25 09:27:55;;;;;;;24.55;12.95;;;1.90;99.90;;;;;;5021127;28;20034;-73
2023/01/25 09:30:22;;;;;;;25.10;13.00;;;1.90;99.90;;;;;;5009681;28;20062;-72
2023/01/25 09:33:04;;;;;;;;;;;1.90;99.90;;;;;;5019710;28;20045;-72
2023/01/25 09:35:33;;;;;;;23.98;12.27;;;1.90;99.90;;;;;;5020955;28;19927;-71
2023/01/25 09:38:00;;;;;;;26.10;13.95;;;2.00;99.90;;;;;;5009288;28;20050;-72
2023/01/25 09:40:34;;;;;;;25.35;13.25;;;2.00;99.90;;;;;;5010056;28;20056;-71
2023/01/25 09:43:09;;;;;;;24.45;13.20;;;1.90;99.90;;;;;;5029639;28;20436;-72
2023/01/25 09:45:37;;;;;;;26.33;13.18;;;2.00;99.90;;;;;;5030297;28;20423;-71
2023/01/25 09:48:39;;;;;;;26.20;14.25;;;2.00;99.90;;;;;;5028650;28;20045;-72
2023/01/25 09:51:18;;;;;;;24.02;13.95;;;2.10;99.90;;;;;;5012587;28;20571;-72
2023/01/25 09:53:50;;;;;;;24.63;13.55;;;2.20;99.90;;;;;;5029649;28;20511;-72
2023/01/25 09:56:26;;;;;;;23.95;13.18;;;2.20;99.90;;;;;;5011764;28;20140;-72
2023/01/25 09:58:58;;;;;;;23.30;11.90;;;2.10;99.90;;;;;;5028659;28;20126;-72
2023/01/25 10:01:28;;;;;;;;;;;2.10;99.90;;;;;;5011407;28;20491;-72
2023/01/25 10:04:15;;;;;;;22.23;11.73;;;2.10;99.90;;;;;;5029110;28;19932;-71
2023/01/25 10:06:45;;;;;;;22.67;11.68;;;2.10;99.90;;;;;;5024664;28;20045;-74
2023/01/25 10:09:39;;;;;;;22.23;12.23;;;2.00;99.90;;;;;;5014117;28;20046;-71
2023/01/25 10:12:20;;;;;;;27.02;13.38;;;2.00;99.90;;;;;;5007348;28;20053;-73
2023/01/25 10:14:48;;;;;;;24.67;12.85;;;1.90;99.90;;;;;;5027570;28;20416;-72
2023/01/25 10:17:37;;;;;;;24.55;13.52;;;1.90;99.90;;;;;;5031388;28;20045;-73
2023/01/25 10:20:27;;;;;;;29.00;13.18;;;1.90;99.90;;;;;;5030753;28;20049;-73
2023/01/25 10:23:06;;;;;;;26.27;13.73;;;2.00;99.90;;;;;;5009651;28;20126;-73
2023/01/25 10:25:58;;;;;;;27.65;13.57;;;1.90;99.90;;;;;;5009236;28;20045;-72
2023/01/25 10:28:38;;;;;;;25.58;13.52;;;1.80;99.90;;;;;;5005708;28;20053;-72
2023/01/25 10:31:28;;;;;;;26.73;13.68;;;1.80;99.90;;;;;;5024497;28;20068;-72
2023/01/25 10:33:56;;;;;;;25.00;13.70;;;1.90;99.90;;;;;;5032977;28;20052;-71
2023/01/25 10:36:29;;;;;;;27.55;14.10;;;1.90;99.90;;;;;;5014858;28;20412;-72
2023/01/25 10:38:59;;;;;;;29.90;13.90;;;1.90;99.90;;;;;;5030666;28;20056;-73
2023/01/25 10:41:37;;;;;;;30.13;14.30;;;2.00;99.90;;;;;;5032776;28;20076;-73
2023/01/25 10:44:23;;;;;;;38.35;18.92;;;2.00;99.90;;;;;;5019196;28;20412;-74
2023/01/25 10:46:56;;;;;;;27.77;14.38;;;2.10;99.90;;;;;;5015596;28;20583;-74
2023/01/25 10:49:39;;;;;;;29.20;13.55;;;2.10;99.90;;;;;;5031753;28;20065;-70
2023/01/25 10:52:12;;;;;;;29.00;13.13;;;2.20;99.90;;;;;;4995507;28;20093;-73
2023/01/25 10:54:40;;;;;;;26.60;13.60;;;2.10;99.90;;;;;;5013331;28;20477;-73
2023/01/25 10:57:11;;;;;;;27.10;13.48;;;2.10;99.90;;;;;;5031507;28;20041;-74
2023/01/25 10:59:38;;;;;;;28.17;14.18;;;2.20;99.90;;;;;;5025536;28;20408;-73
2023/01/25 11:02:24;;;;;;;25.42;12.93;;;2.20;99.90;;;;;;5024462;28;20463;-73
2023/01/25 11:04:52;;;;;;;23.42;12.98;;;2.20;99.90;;;;;;4992444;28;20129;-72
2023/01/25 11:07:27;;;;;;;26.90;13.70;;;2.20;99.90;;;;;;5012243;28;20504;-72
2023/01/25 11:09:55;;;;;;;25.13;13.15;;;2.30;99.90;;;;;;5010363;28;20041;-73
2023/01/25 11:12:22;;;;;;;29.50;14.40;;;2.30;99.90;;;;;;5007069;28;20042;-71
2023/01/25 11:14:50;;;;;;;26.55;13.63;;;2.30;99.90;;;;;;5011342;28;20049;-73
2023/01/25 11:17:30;;;;;;;26.23;12.98;;;2.30;99.90;;;;;;5011469;28;20445;-71
2023/01/25 11:20:20;;;;;;;28.48;13.55;;;2.30;99.90;;;;;;5017126;28;20088;-72
2023/01/25 11:22:55;;;;;;;28.90;14.35;;;2.30;99.90;;;;;;5032213;28;20073;-72
2023/01/25 11:25:29;;;;;;;26.50;14.23;;;2.30;99.90;;;;;;5021005;28;20481;-73
2023/01/25 11:28:29;;;;;;;27.33;13.63;;;2.30;99.90;;;;;;5010982;28;20504;-72
2023/01/25 11:30:56;;;;;;;28.70;13.82;;;2.30;99.90;;;;;;5007764;28;20045;-72
2023/01/25 11:33:25;;;;;;;24.23;13.02;;;2.30;99.90;;;;;;5013610;28;20484;-72
2023/01/25 11:36:18;;;;;;;26.48;14.05;;;2.40;99.90;;;;;;5006128;28;20466;-71
2023/01/25 11:39:04;;;;;;;27.13;13.57;;;2.40;99.90;;;;;;5012659;28;20053;-73
2023/01/25 11:41:34;;;;;;;24.33;13.73;;;2.40;99.90;;;;;;5006439;28;20496;-74
2023/01/25 11:44:25;;;;;;;25.48;13.95;;;2.40;99.90;;;;;;5012487;28;20524;-73
2023/01/25 11:46:55;;;;;;;25.48;12.18;;;2.40;99.90;;;;;;5017285;28;20041;-73
2023/01/25 11:49:48;;;;;;;27.45;13.57;;;2.50;99.90;;;;;;5011477;28;20647;-73
2023/01/25 11:52:32;;;;;;;31.60;13.90;;;2.40;99.90;;;;;;5018814;28;20049;-74
2023/01/25 11:55:37;;;;;;;26.15;13.30;;;2.30;99.90;;;;;;5009940;28;20073;-73
2023/01/25 11:58:16;;;;;;;26.50;13.88;;;2.40;99.90;;;;;;5008858;28;20703;-72
2023/01/25 12:00:52;;;;;;;30.15;15.82;;;2.40;99.90;;;;;;5010529;28;20042;-72
2023/01/25 12:03:38;;;;;;;25.88;14.63;;;2.30;99.90;;;;;;5009925;28;20052;-73
2023/01/25 12:06:19;;;;;;;25.00;12.50;;;2.40;99.90;;;;;;5010229;28;20048;-72
2023/01/25 12:09:02;;;;;;;23.20;12.55;;;2.40;99.90;;;;;;4995429;28;20125;-72
2023/01/25 12:11:54;;;;;;;24.98;12.68;;;2.40;99.90;;;;;;5006381;28;20500;-74
2023/01/25 12:14:36;;;;;;;23.00;13.30;;;2.30;99.90;;;;;;5009567;28;20080;-72
2023/01/25 12:17:06;;;;;;;;;;;2.40;99.90;;;;;;5008650;28;20057;-72
2023/01/25 12:19:36;;;;;;;24.35;12.68;;;2.50;99.90;;;;;;5010174;28;20402;-72
2023/01/25 12:22:16;;;;;;;21.77;13.35;;;2.40;99.90;;;;;;5007721;28;20044;-72
2023/01/25 12:25:07;;;;;;;24.00;13.20;;;2.40;99.90;;;;;;5009624;28;20156;-72
2023/01/25 12:27:48;;;;;;;24.92;12.98;;;2.40;99.90;;;;;;5009071;28;20041;-72
2023/01/25 12:31:00;;;;;;;27.00;13.63;;;2.40;99.90;;;;;;5008405;28;20507;-72
2023/01/25 12:33:32;;;;;;;22.83;12.40;;;2.40;99.90;;;;;;5005442;28;20044;-71
2023/01/25 12:36:18;;;;;;;23.27;12.63;;;2.50;99.90;;;;;;5010121;28;20104;-72
2023/01/25 12:39:03;;;;;;;26.73;13.80;;;2.40;99.90;;;;;;5011109;28;20492;-73
2023/01/25 12:41:50;;;;;;;23.83;13.02;;;2.30;99.90;;;;;;5010881;28;20124;-71
2023/01/25 12:44:38;;;;;;;27.55;13.60;;;2.40;99.90;;;;;;5029814;28;20708;-71
2023/01/25 12:47:28;;;;;;;33.75;14.23;;;2.40;99.90;;;;;;5028231;28;20076;-72
2023/01/25 12:50:14;;;;;;;28.00;14.63;;;2.30;99.90;;;;;;5012675;28;20431;-73
2023/01/25 12:53:19;;;;;;;22.33;13.32;;;2.30;99.90;;;;;;5023056;28;20124;-72
2023/01/25 12:55:47;;;;;;;31.77;13.85;;;2.20;99.90;;;;;;5006390;28;20500;-72
2023/01/25 12:58:33;;;;;;;28.75;13.43;;;2.30;99.90;;;;;;4992404;28;20085;-71
2023/01/25 13:01:19;;;;;;;25.92;14.07;;;2.30;99.90;;;;;;5004650;28;20045;-72
2023/01/25 13:03:58;;;;;;;28.77;14.27;;;2.20;99.90;;;;;;5030676;28;20145;-72
2023/01/25 13:06:41;;;;;;;26.02;13.13;;;2.30;99.90;;;;;;5026849;28;20122;-71
2023/01/25 13:09:17;;;;;;;22.92;12.38;;;2.30;99.90;;;;;;5006413;28;20046;-71
2023/01/25 13:11:46;;;;;;;24.13;13.65;;;2.30;99.90;;;;;;5011823;28;20507;-71